Time;durP1;ratioP1;P1;durP2;ratioP2;P2;SDS_P1;SDS_P2;PMS_P1;PMS_P2;Temp;Humidity;BMP_temperature;BMP_pressure;BME280_temperature;BME280_humidity;BME280_pressure;Samples;Min_cycle;Max_cycle;Signal;HPM_P1;HPM_P2
2023/09/03 00:02:08;;;;;;;11.00;6.13;;;;;;;;;;5059332;28;20048;-56
2023/09/03 00:04:35;;;;;;;7.07;4.40;;;;;;;;;;5072045;28;20060;-56
2023/09/03 00:07:02;;;;;;;10.30;5.78;;;;;;;;;;5072634;28;20484;-55
2023/09/03 00:09:28;;;;;;;9.45;5.95;;;;;;;;;;5073085;28;20128;-56
2023/09/03 00:11:55;;;;;;;9.07;5.50;;;;;;;;;;5072859;28;20405;-56
2023/09/03 00:14:23;;;;;;;10.25;5.60;;;;;;;;;;5071911;28;20056;-56
2023/09/03 00:16:52;;;;;;;8.90;4.70;;;;;;;;;;5071612;28;20057;-56
2023/09/03 00:19:18;;;;;;;7.60;4.75;;;;;;;;;;5056576;28;20075;-54
2023/09/03 00:21:44;;;;;;;9.02;5.40;;;;;;;;;;5070992;28;20048;-56
2023/09/03 00:24:11;;;;;;;14.25;5.90;;;;;;;;;;5070155;28;20374;-56
2023/09/03 00:26:38;;;;;;;8.38;4.88;;;;;;;;;;5070655;28;20052;-56
2023/09/03 00:29:05;;;;;;;8.60;5.90;;;;;;;;;;5072784;28;20401;-56
2023/09/03 00:31:33;;;;;;;10.43;6.25;;;;;;;;;;5064675;28;20808;-55
2023/09/03 00:34:00;;;;;;;13.38;6.85;;;;;;;;;;5070482;28;20055;-56
2023/09/03 00:36:26;;;;;;;9.38;5.40;;;;;;;;;;5071723;28;20061;-56
2023/09/03 00:38:53;;;;;;;10.05;5.50;;;;;;;;;;5073045;28;20063;-56
2023/09/03 00:41:20;;;;;;;8.95;5.53;;;;;;;;;;5071780;28;20158;-56
2023/09/03 00:43:47;;;;;;;9.38;5.53;;;;;;;;;;5070762;28;20389;-56
2023/09/03 00:46:13;;;;;;;9.77;5.35;;;;;;;;;;5068986;28;20052;-56
2023/09/03 00:48:42;;;;;;;8.98;4.53;;;;;;;;;;5071906;28;20055;-56
2023/09/03 00:51:10;;;;;;;8.30;4.53;;;;;;;;;;5071791;28;20406;-55
2023/09/03 00:53:38;;;;;;;8.20;4.60;;;;;;;;;;5067394;28;20140;-56
2023/09/03 00:56:05;;;;;;;10.07;4.97;;;;;;;;;;5068778;28;20044;-56
2023/09/03 00:58:33;;;;;;;8.35;5.07;;;;;;;;;;5070431;28;20059;-56
2023/09/03 01:01:00;;;;;;;12.13;5.15;;;;;;;;;;5070901;28;20072;-56
2023/09/03 01:03:27;;;;;;;7.75;4.88;;;;;;;;;;5070711;28;20049;-56
2023/09/03 01:05:55;;;;;;;9.02;5.15;;;;;;;;;;5070279;28;20052;-56
2023/09/03 01:08:22;;;;;;;6.95;4.50;;;;;;;;;;5070813;28;20493;-56
2023/09/03 01:10:52;;;;;;;9.60;6.50;;;;;;;;;;5072128;28;20052;-56
2023/09/03 01:13:23;;;;;;;8.88;5.47;;;;;;;;;;5072124;28;20078;-54
2023/09/03 01:15:51;;;;;;;8.30;5.18;;;;;;;;;;5065810;28;20049;-55
2023/09/03 01:18:19;;;;;;;7.70;3.90;;;;;;;;;;5072216;28;20386;-55
2023/09/03 01:20:51;;;;;;;8.20;4.37;;;;;;;;;;5067968;28;20056;-56
2023/09/03 01:23:27;;;;;;;10.32;4.88;;;;;;;;;;5072151;28;20049;-56
2023/09/03 01:26:04;;;;;;;7.78;4.43;;;;;;;;;;5065838;28;20055;-56
2023/09/03 01:28:37;;;;;;;8.13;5.10;;;;;;;;;;5069238;28;20051;-56
2023/09/03 01:31:05;;;;;;;10.50;5.68;;;;;;;;;;5070774;28;20049;-56
2023/09/03 01:33:33;;;;;;;11.83;5.70;;;;;;;;;;5071675;28;20044;-55
2023/09/03 01:36:00;;;;;;;8.85;4.75;;;;;;;;;;5069121;28;20079;-55
2023/09/03 01:38:27;;;;;;;5.80;4.65;;;;;;;;;;5071658;28;20559;-55
2023/09/03 01:40:55;;;;;;;8.52;5.57;;;;;;;;;;5069700;28;20497;-56
2023/09/03 01:43:22;;;;;;;9.48;5.82;;;;;;;;;;5069878;28;20393;-56
2023/09/03 01:45:58;;;;;;;8.20;5.88;;;;;;;;;;5069648;28;20412;-56
2023/09/03 01:48:36;;;;;;;12.43;6.10;;;;;;;;;;5071574;28;20056;-56
2023/09/03 01:51:07;;;;;;;8.43;5.40;;;;;;;;;;5066573;28;20048;-55
2023/09/03 01:53:37;;;;;;;7.55;5.15;;;;;;;;;;5065717;28;20056;-56
2023/09/03 01:56:04;;;;;;;8.55;5.28;;;;;;;;;;5065636;28;20060;-56
2023/09/03 01:58:33;;;;;;;10.85;5.72;;;;;;;;;;5067477;28;20060;-56
2023/09/03 02:01:03;;;;;;;9.48;4.97;;;;;;;;;;5069453;28;20049;-56
2023/09/03 02:03:31;;;;;;;10.85;5.72;;;;;;;;;;5068954;28;20048;-56
2023/09/03 02:05:57;;;;;;;8.73;4.88;;;;;;;;;;5068084;28;20055;-56
2023/09/03 02:08:24;;;;;;;8.75;4.68;;;;;;;;;;5068162;28;20049;-56
2023/09/03 02:10:51;;;;;;;7.32;5.00;;;;;;;;;;5069840;28;20494;-56
2023/09/03 02:13:18;;;;;;;6.47;4.18;;;;;;;;;;5073497;28;20477;-56
2023/09/03 02:15:45;;;;;;;13.52;6.45;;;;;;;;;;5073508;28;20059;-56
2023/09/03 02:18:13;;;;;;;9.68;5.07;;;;;;;;;;5058747;28;20060;-56
2023/09/03 02:20:40;;;;;;;11.45;6.65;;;;;;;;;;5073412;28;20490;-56
2023/09/03 02:23:07;;;;;;;9.60;5.90;;;;;;;;;;5069127;28;20458;-56
2023/09/03 02:25:33;;;;;;;13.85;6.35;;;;;;;;;;5067215;28;20404;-56
2023/09/03 02:28:00;;;;;;;11.00;6.53;;;;;;;;;;5074460;28;20480;-56
2023/09/03 02:30:27;;;;;;;11.07;6.97;;;;;;;;;;5074382;28;20060;-56
2023/09/03 02:32:54;;;;;;;14.88;7.40;;;;;;;;;;5075139;28;20056;-56
2023/09/03 02:35:22;;;;;;;15.43;8.40;;;;;;;;;;5073243;28;20059;-56
2023/09/03 02:37:49;;;;;;;19.98;8.43;;;;;;;;;;5074539;28;20060;-57
2023/09/03 02:40:16;;;;;;;21.40;7.53;;;;;;;;;;5074372;28;20413;-55
2023/09/03 02:42:42;;;;;;;14.82;6.93;;;;;;;;;;5075153;28;20059;-56
2023/09/03 02:45:09;;;;;;;15.38;8.45;;;;;;;;;;5072236;28;20048;-56
2023/09/03 02:47:36;;;;;;;16.42;8.27;;;;;;;;;;5074264;28;20513;-56
2023/09/03 02:50:03;;;;;;;15.50;8.25;;;;;;;;;;5073070;28;20409;-56
2023/09/03 02:52:31;;;;;;;16.83;9.70;;;;;;;;;;5073047;28;20425;-55
2023/09/03 02:54:58;;;;;;;23.15;8.55;;;;;;;;;;5073507;28;20044;-56
2023/09/03 02:57:25;;;;;;;13.48;7.80;;;;;;;;;;5074321;28;20053;-56
2023/09/03 02:59:52;;;;;;;11.23;6.10;;;;;;;;;;5073734;28;20052;-56
2023/09/03 03:02:18;;;;;;;13.65;5.78;;;;;;;;;;5073017;28;20063;-56
2023/09/03 03:04:45;;;;;;;7.65;5.43;;;;;;;;;;5072612;28;20514;-57
2023/09/03 03:07:12;;;;;;;9.63;5.68;;;;;;;;;;5074421;28;20488;-56
2023/09/03 03:09:40;;;;;;;7.97;5.35;;;;;;;;;;5073988;28;20056;-55
2023/09/03 03:12:07;;;;;;;10.18;6.07;;;;;;;;;;5074008;28;20064;-55
2023/09/03 03:14:34;;;;;;;12.55;6.38;;;;;;;;;;5072846;28;20042;-55
2023/09/03 03:17:00;;;;;;;12.75;5.97;;;;;;;;;;5069766;28;20056;-56
2023/09/03 03:19:27;;;;;;;8.27;5.55;;;;;;;;;;5074460;28;20048;-56
2023/09/03 03:21:54;;;;;;;9.75;5.13;;;;;;;;;;5071208;28;20052;-56
2023/09/03 03:24:21;;;;;;;7.53;4.97;;;;;;;;;;5073341;28;20057;-56
2023/09/03 03:26:49;;;;;;;8.18;5.72;;;;;;;;;;5071096;28;20052;-54
2023/09/03 03:29:15;;;;;;;10.25;5.57;;;;;;;;;;5072982;28;20059;-56
2023/09/03 03:31:43;;;;;;;10.15;5.45;;;;;;;;;;5072643;28;20060;-56
2023/09/03 03:34:09;;;;;;;12.45;7.10;;;;;;;;;;5072408;28;20044;-55
2023/09/03 03:36:36;;;;;;;13.18;6.50;;;;;;;;;;5071711;28;20059;-56
2023/09/03 03:39:03;;;;;;;13.40;6.80;;;;;;;;;;5073839;28;20050;-55
2023/09/03 03:41:30;;;;;;;9.85;5.63;;;;;;;;;;5072933;28;20049;-56
2023/09/03 03:43:58;;;;;;;14.80;6.70;;;;;;;;;;5073323;28;20469;-56
2023/09/03 03:46:25;;;;;;;8.52;5.30;;;;;;;;;;5072424;28;20075;-56
2023/09/03 03:48:52;;;;;;;9.77;5.47;;;;;;;;;;5072248;28;20075;-56
2023/09/03 03:51:18;;;;;;;12.13;5.65;;;;;;;;;;5066620;28;20417;-55
2023/09/03 03:53:45;;;;;;;9.52;5.28;;;;;;;;;;5094136;28;20400;-57
2023/09/03 03:56:12;;;;;;;7.93;5.63;;;;;;;;;;5082248;28;20052;-57
2023/09/03 03:58:40;;;;;;;9.18;5.18;;;;;;;;;;5067751;28;20150;-57
2023/09/03 04:01:16;;;;;;;9.27;5.57;;;;;;;;;;5073333;28;20059;-56
2023/09/03 04:03:43;;;;;;;8.05;5.75;;;;;;;;;;5073775;28;20481;-56
2023/09/03 04:06:10;;;;;;;9.57;5.75;;;;;;;;;;5072178;28;20064;-56
2023/09/03 04:08:38;;;;;;;8.82;5.22;;;;;;;;;;5073907;28;20063;-56
2023/09/03 04:11:05;;;;;;;10.82;6.32;;;;;;;;;;5073787;28;20055;-56
2023/09/03 04:13:32;;;;;;;13.82;5.93;;;;;;;;;;5073647;28;20060;-56
2023/09/03 04:16:00;;;;;;;9.98;5.95;;;;;;;;;;5072663;28;20052;-56
2023/09/03 04:18:28;;;;;;;11.52;6.25;;;;;;;;;;5073760;28;20052;-56
2023/09/03 04:20:55;;;;;;;12.45;7.13;;;;;;;;;;5071562;28;20075;-56
2023/09/03 04:23:22;;;;;;;13.07;7.28;;;;;;;;;;5072396;28;20063;-56
2023/09/03 04:25:50;;;;;;;12.98;6.55;;;;;;;;;;5073404;28;20055;-57
2023/09/03 04:28:17;;;;;;;13.07;7.88;;;;;;;;;;5073135;28;20056;-56
2023/09/03 04:30:44;;;;;;;13.45;7.13;;;;;;;;;;5072871;28;20049;-56
2023/09/03 04:33:11;;;;;;;15.55;7.90;;;;;;;;;;5072258;28;20401;-56
2023/09/03 04:35:39;;;;;;;14.93;8.30;;;;;;;;;;5070918;28;20052;-56
2023/09/03 04:38:06;;;;;;;15.27;7.75;;;;;;;;;;5072176;28;20482;-56
2023/09/03 04:40:34;;;;;;;18.92;8.85;;;;;;;;;;5072787;28;20421;-56
2023/09/03 04:43:01;;;;;;;15.98;9.88;;;;;;;;;;5072036;28;20052;-56
2023/09/03 04:45:28;;;;;;;14.75;8.68;;;;;;;;;;5072949;28;20060;-56
2023/09/03 04:47:55;;;;;;;14.95;9.00;;;;;;;;;;5072992;28;20048;-56
2023/09/03 04:50:21;;;;;;;22.10;9.55;;;;;;;;;;5073022;28;20056;-56
2023/09/03 04:52:50;;;;;;;15.95;8.80;;;;;;;;;;5071513;28;20417;-56
2023/09/03 04:55:17;;;;;;;19.40;10.02;;;;;;;;;;5072722;28;20055;-56
2023/09/03 04:57:43;;;;;;;21.60;10.30;;;;;;;;;;5072637;28;20060;-57
2023/09/03 05:00:11;;;;;;;15.48;9.75;;;;;;;;;;5073003;28;20057;-56
2023/09/03 05:02:38;;;;;;;17.90;11.57;;;;;;;;;;5071739;28;20067;-56
2023/09/03 05:05:05;;;;;;;16.48;10.23;;;;;;;;;;5072846;28;20048;-55
2023/09/03 05:07:32;;;;;;;17.70;9.73;;;;;;;;;;5070547;28;20053;-57
2023/09/03 05:10:00;;;;;;;17.45;10.32;;;;;;;;;;5072852;28;20048;-57
2023/09/03 05:12:27;;;;;;;20.77;9.90;;;;;;;;;;5070965;28;20056;-56
2023/09/03 05:14:54;;;;;;;17.52;8.80;;;;;;;;;;5072748;28;20051;-55
2023/09/03 05:17:21;;;;;;;13.85;9.57;;;;;;;;;;5071931;28;20060;-55
2023/09/03 05:19:48;;;;;;;19.77;9.75;;;;;;;;;;5072783;28;20063;-56
2023/09/03 05:22:15;;;;;;;17.30;9.73;;;;;;;;;;5064832;28;20048;-56
2023/09/03 05:24:42;;;;;;;13.73;8.57;;;;;;;;;;5072453;28;20044;-56
2023/09/03 05:27:10;;;;;;;18.17;9.75;;;;;;;;;;5072587;28;20505;-55
2023/09/03 05:29:37;;;;;;;13.73;8.70;;;;;;;;;;5072510;28;20075;-56
2023/09/03 05:32:04;;;;;;;16.48;9.80;;;;;;;;;;5071040;28;20127;-56
2023/09/03 05:34:30;;;;;;;13.43;7.78;;;;;;;;;;5072112;28;20409;-56
2023/09/03 05:36:57;;;;;;;15.05;8.77;;;;;;;;;;5070575;28;20071;-56
2023/09/03 05:39:25;;;;;;;18.60;10.60;;;;;;;;;;5067376;28;20083;-58
2023/09/03 05:41:52;;;;;;;14.93;9.48;;;;;;;;;;5068576;28;20067;-58
2023/09/03 05:44:20;;;;;;;14.40;9.00;;;;;;;;;;5071665;28;20466;-60
2023/09/03 05:46:46;;;;;;;15.60;10.15;;;;;;;;;;5069320;28;20057;-59
2023/09/03 05:49:13;;;;;;;13.02;8.25;;;;;;;;;;5060256;28;20052;-61
2023/09/03 05:51:40;;;;;;;11.70;7.38;;;;;;;;;;5056982;28;20056;-58
2023/09/03 05:54:07;;;;;;;10.80;7.28;;;;;;;;;;5072224;28;20055;-59
2023/09/03 05:56:34;;;;;;;13.25;7.97;;;;;;;;;;5063416;28;20056;-59
2023/09/03 05:59:05;;;;;;;13.50;7.28;;;;;;;;;;5066137;28;20488;-58
2023/09/03 06:01:33;;;;;;;13.57;8.63;;;;;;;;;;5067034;28;21336;-59
2023/09/03 06:04:04;;;;;;;15.07;8.45;;;;;;;;;;5062930;28;20073;-59
2023/09/03 06:06:35;;;;;;;12.70;7.75;;;;;;;;;;5061074;28;20044;-60
2023/09/03 06:09:03;;;;;;;12.77;7.68;;;;;;;;;;5064361;28;20045;-60
2023/09/03 06:11:29;;;;;;;12.75;8.15;;;;;;;;;;5066275;28;20120;-59
2023/09/03 06:13:56;;;;;;;15.23;9.48;;;;;;;;;;5064846;28;20705;-57
2023/09/03 06:16:23;;;;;;;13.32;8.45;;;;;;;;;;5065205;28;20045;-58
2023/09/03 06:18:51;;;;;;;26.55;9.23;;;;;;;;;;5066181;28;20060;-36
2023/09/03 06:21:18;;;;;;;14.18;8.25;;;;;;;;;;5058984;28;20060;-36
2023/09/03 06:23:45;;;;;;;14.45;9.20;;;;;;;;;;5069577;28;20059;-36
2023/09/03 06:26:13;;;;;;;14.60;8.30;;;;;;;;;;5075298;28;20048;-36
2023/09/03 06:28:40;;;;;;;13.95;8.02;;;;;;;;;;5074600;28;20049;-36
2023/09/03 06:31:07;;;;;;;12.20;7.90;;;;;;;;;;5072771;28;20049;-36
2023/09/03 06:33:34;;;;;;;12.27;7.80;;;;;;;;;;5075327;28;20060;-36
2023/09/03 06:36:02;;;;;;;18.00;10.32;;;;;;;;;;5074997;28;20060;-36
2023/09/03 06:38:29;;;;;;;14.45;8.02;;;;;;;;;;5070873;28;20051;-36
2023/09/03 06:40:55;;;;;;;14.43;8.68;;;;;;;;;;5069908;28;20123;-36
2023/09/03 06:43:22;;;;;;;16.35;9.30;;;;;;;;;;5071245;28;20045;-37
2023/09/03 06:45:50;;;;;;;13.05;8.82;;;;;;;;;;5069520;28;20060;-36
2023/09/03 06:48:16;;;;;;;11.40;7.68;;;;;;;;;;5070371;28;20064;-36
2023/09/03 06:50:43;;;;;;;14.05;8.07;;;;;;;;;;5073440;28;20052;-36
2023/09/03 06:53:11;;;;;;;19.13;9.02;;;;;;;;;;5071930;28;20059;-36
2023/09/03 06:55:38;;;;;;;14.18;8.32;;;;;;;;;;5082158;28;20056;-58
2023/09/03 06:58:05;;;;;;;15.85;8.80;;;;;;;;;;5063845;28;20052;-59
2023/09/03 07:00:34;;;;;;;13.82;7.70;;;;;;;;;;5071476;28;20044;-59
2023/09/03 07:03:01;;;;;;;13.43;8.18;;;;;;;;;;5071815;28;20052;-58
2023/09/03 07:05:28;;;;;;;11.95;7.75;;;;;;;;;;5072615;28;20044;-59
2023/09/03 07:07:55;;;;;;;14.55;9.07;;;;;;;;;;5073004;28;20493;-58
2023/09/03 07:10:23;;;;;;;15.68;9.15;;;;;;;;;;5074760;28;20067;-59
2023/09/03 07:12:50;;;;;;;13.57;7.75;;;;;;;;;;5072565;28;20052;-59
2023/09/03 07:15:17;;;;;;;16.15;8.32;;;;;;;;;;5074722;28;20053;-59
2023/09/03 07:17:43;;;;;;;12.50;7.75;;;;;;;;;;5069439;28;20049;-58
2023/09/03 07:20:10;;;;;;;14.98;8.10;;;;;;;;;;5073961;28;20059;-59
2023/09/03 07:22:37;;;;;;;13.45;7.68;;;;;;;;;;5069393;28;20059;-59
2023/09/03 07:25:04;;;;;;;15.60;8.00;;;;;;;;;;5065016;28;20052;-59
2023/09/03 07:27:33;;;;;;;13.43;7.43;;;;;;;;;;5065033;28;20051;-60
2023/09/03 07:30:00;;;;;;;11.63;8.25;;;;;;;;;;5064543;28;20055;-58
2023/09/03 07:32:27;;;;;;;15.07;7.75;;;;;;;;;;5062740;28;20056;-59
2023/09/03 07:34:53;;;;;;;13.65;8.65;;;;;;;;;;5063031;28;20049;-59
2023/09/03 07:37:20;;;;;;;12.25;7.93;;;;;;;;;;5062021;28;20064;-59
2023/09/03 07:39:47;;;;;;;11.40;8.45;;;;;;;;;;5064026;28;20056;-58
2023/09/03 07:42:14;;;;;;;14.77;8.35;;;;;;;;;;5066652;28;20060;-59
2023/09/03 07:44:42;;;;;;;11.80;7.38;;;;;;;;;;5067487;28;20064;-59
2023/09/03 07:47:09;;;;;;;11.52;7.38;;;;;;;;;;5061129;28;20052;-59
2023/09/03 07:49:35;;;;;;;11.60;7.00;;;;;;;;;;5065369;28;20071;-58
2023/09/03 07:52:07;;;;;;;16.30;8.02;;;;;;;;;;5063421;28;20045;-59
2023/09/03 07:54:42;;;;;;;10.75;7.18;;;;;;;;;;5065548;28;20064;-59
2023/09/03 07:57:10;;;;;;;14.15;8.70;;;;;;;;;;5061598;28;20052;-60
2023/09/03 07:59:37;;;;;;;14.68;7.32;;;;;;;;;;5065642;28;20052;-59
2023/09/03 08:02:05;;;;;;;10.43;7.03;;;;;;;;;;5065314;28;20044;-59
2023/09/03 08:04:38;;;;;;;12.40;6.40;;;;;;;;;;5064881;28;20056;-59
2023/09/03 08:07:05;;;;;;;10.30;6.07;;;;;;;;;;5059763;28;20494;-59
2023/09/03 08:09:32;;;;;;;10.38;6.85;;;;;;;;;;5062420;28;20048;-59
2023/09/03 08:11:59;;;;;;;12.80;6.65;;;;;;;;;;5066074;28;20053;-59
2023/09/03 08:14:26;;;;;;;12.38;7.28;;;;;;;;;;5064013;28;20056;-60
2023/09/03 08:16:52;;;;;;;12.40;5.97;;;;;;;;;;5067186;28;20492;-59
2023/09/03 08:19:21;;;;;;;10.32;6.72;;;;;;;;;;5064290;28;20375;-59
2023/09/03 08:21:48;;;;;;;7.78;5.65;;;;;;;;;;5060431;28;20068;-59
2023/09/03 08:24:15;;;;;;;10.63;6.40;;;;;;;;;;5061321;28;20351;-59
2023/09/03 08:26:42;;;;;;;12.15;6.95;;;;;;;;;;5061765;28;20056;-59
2023/09/03 08:29:10;;;;;;;9.63;6.45;;;;;;;;;;5064865;28;20055;-59
2023/09/03 08:31:37;;;;;;;12.20;7.47;;;;;;;;;;5067043;28;20413;-59
2023/09/03 08:34:04;;;;;;;12.45;7.88;;;;;;;;;;5071627;28;20053;-59
2023/09/03 08:36:32;;;;;;;11.20;6.85;;;;;;;;;;5067547;28;20064;-60
2023/09/03 08:39:00;;;;;;;11.98;6.43;;;;;;;;;;5063594;28;20051;-60
2023/09/03 08:41:27;;;;;;;10.38;6.70;;;;;;;;;;5062718;28;20055;-59
2023/09/03 08:43:55;;;;;;;10.10;5.97;;;;;;;;;;5064148;28;20355;-58
2023/09/03 08:46:24;;;;;;;10.13;6.43;;;;;;;;;;5070416;28;20071;-58
2023/09/03 08:48:52;;;;;;;9.38;5.55;;;;;;;;;;5069260;28;20048;-59
2023/09/03 08:51:19;;;;;;;8.93;5.60;;;;;;;;;;5065883;28;20064;-58
2023/09/03 08:53:48;;;;;;;12.77;6.78;;;;;;;;;;5067982;28;20052;-59
2023/09/03 08:56:15;;;;;;;8.07;5.47;;;;;;;;;;5069725;28;20111;-58
2023/09/03 08:58:42;;;;;;;10.85;6.13;;;;;;;;;;5069960;28;20048;-60
2023/09/03 09:01:09;;;;;;;9.90;5.53;;;;;;;;;;5061371;28;20493;-59
2023/09/03 09:03:37;;;;;;;10.68;5.75;;;;;;;;;;5068802;28;20146;-59
2023/09/03 09:06:05;;;;;;;8.15;5.25;;;;;;;;;;5066866;28;20485;-59
2023/09/03 09:08:32;;;;;;;9.20;5.53;;;;;;;;;;5069620;28;20119;-59
2023/09/03 09:11:02;;;;;;;7.53;5.53;;;;;;;;;;5068201;28;20053;-59
2023/09/03 09:13:32;;;;;;;8.55;5.38;;;;;;;;;;5063610;28;20468;-59
2023/09/03 09:15:59;;;;;;;6.75;4.85;;;;;;;;;;5062083;28;20489;-59
2023/09/03 09:18:26;;;;;;;7.05;4.32;;;;;;;;;;5067900;28;20409;-59
2023/09/03 09:20:57;;;;;;;7.70;4.40;;;;;;;;;;5068775;28;20051;-59
2023/09/03 09:23:24;;;;;;;6.38;4.45;;;;;;;;;;5067397;28;20053;-59
2023/09/03 09:25:51;;;;;;;7.13;4.72;;;;;;;;;;5069038;28;20405;-59
2023/09/03 09:28:19;;;;;;;6.10;4.38;;;;;;;;;;5067480;28;20417;-60
2023/09/03 09:30:53;;;;;;;6.13;4.00;;;;;;;;;;5066316;28;20052;-59
2023/09/03 09:33:20;;;;;;;6.80;4.00;;;;;;;;;;5070593;28;20485;-60
2023/09/03 09:35:46;;;;;;;5.20;3.80;;;;;;;;;;5070429;28;20060;-59
2023/09/03 09:38:13;;;;;;;5.30;3.08;;;;;;;;;;5067377;28;20418;-59
2023/09/03 09:40:40;;;;;;;5.60;3.20;;;;;;;;;;5065820;28;20049;-59
2023/09/03 09:43:07;;;;;;;6.50;4.25;;;;;;;;;;5068692;28;20401;-59
2023/09/03 09:45:45;;;;;;;5.88;3.70;;;;;;;;;;5067952;28;20053;-59
2023/09/03 09:48:12;;;;;;;;;;;;;;;;;;5072811;28;20049;-59
2023/09/03 09:50:39;;;;;;;5.10;3.45;;;;;;;;;;5068532;28;20348;-60
2023/09/03 09:53:19;;;;;;;5.65;3.35;;;;;;;;;;5065794;28;20052;-59
2023/09/03 09:55:46;;;;;;;7.38;4.45;;;;;;;;;;5068459;28;20052;-59
2023/09/03 09:58:13;;;;;;;5.90;4.18;;;;;;;;;;5070207;28;20393;-59
2023/09/03 10:00:42;;;;;;;5.53;4.07;;;;;;;;;;5068084;28;20053;-59
2023/09/03 10:03:11;;;;;;;4.43;3.35;;;;;;;;;;5072227;28;20063;-59
2023/09/03 10:05:38;;;;;;;5.50;3.63;;;;;;;;;;5068349;28;20053;-59
2023/09/03 10:08:05;;;;;;;5.07;3.70;;;;;;;;;;5070044;28;20044;-59
2023/09/03 10:10:32;;;;;;;6.63;3.45;;;;;;;;;;5071666;28;20060;-59
2023/09/03 10:12:58;;;;;;;4.68;3.08;;;;;;;;;;5071961;28;20052;-60
2023/09/03 10:15:27;;;;;;;5.68;3.75;;;;;;;;;;5066534;28;20045;-60
2023/09/03 10:17:55;;;;;;;3.50;2.58;;;;;;;;;;5054484;28;20059;-59
2023/09/03 10:20:22;;;;;;;4.70;3.00;;;;;;;;;;5065167;28;20057;-59
2023/09/03 10:22:50;;;;;;;4.15;2.88;;;;;;;;;;5067074;28;20053;-59
2023/09/03 10:25:20;;;;;;;7.38;3.90;;;;;;;;;;5066879;28;20056;-59
2023/09/03 10:27:50;;;;;;;4.95;3.60;;;;;;;;;;5062057;28;20398;-59
2023/09/03 10:30:17;;;;;;;5.38;3.40;;;;;;;;;;5062607;28;20771;-59
2023/09/03 10:32:45;;;;;;;5.68;3.50;;;;;;;;;;5064549;28;20470;-59
2023/09/03 10:35:13;;;;;;;6.65;3.60;;;;;;;;;;5062726;28;20049;-59
2023/09/03 10:37:44;;;;;;;3.63;2.75;;;;;;;;;;5062709;28;20049;-59
2023/09/03 10:40:19;;;;;;;3.85;2.85;;;;;;;;;;5068486;28;20479;-59
2023/09/03 10:42:46;;;;;;;4.00;3.03;;;;;;;;;;5063212;28;20057;-59
2023/09/03 10:45:13;;;;;;;3.67;2.73;;;;;;;;;;5063235;28;20053;-59
2023/09/03 10:47:55;;;;;;;4.28;2.67;;;;;;;;;;5065914;28;20056;-59
2023/09/03 10:50:37;;;;;;;3.67;2.85;;;;;;;;;;5064780;28;20059;-58
2023/09/03 10:53:06;;;;;;;3.70;2.42;;;;;;;;;;5067655;28;20048;-58
2023/09/03 10:55:33;;;;;;;2.40;1.75;;;;;;;;;;5067798;28;20074;-58
2023/09/03 10:58:16;;;;;;;3.20;2.28;;;;;;;;;;5072016;28;20052;-58
2023/09/03 11:01:06;;;;;;;2.83;1.63;;;;;;;;;;5067708;28;20140;-58
2023/09/03 11:03:45;;;;;;;2.63;1.92;;;;;;;;;;5070393;28;20489;-59
2023/09/03 11:06:15;;;;;;;3.05;1.77;;;;;;;;;;5067146;28;20068;-59
2023/09/03 11:08:43;;;;;;;2.80;2.00;;;;;;;;;;5071410;28;20143;-59
2023/09/03 11:11:11;;;;;;;3.85;2.20;;;;;;;;;;5070976;28;20053;-58
2023/09/03 11:13:37;;;;;;;;;;;;;;;;;;5064153;28;20045;-59
2023/09/03 11:16:04;;;;;;;3.07;1.93;;;;;;;;;;5068147;28;19920;-59
2023/09/03 11:18:32;;;;;;;3.03;2.33;;;;;;;;;;5069983;28;20482;-58
2023/09/03 11:20:59;;;;;;;2.10;1.30;;;;;;;;;;5070402;28;20140;-58
2023/09/03 11:23:29;;;;;;;2.78;1.73;;;;;;;;;;5074063;28;20052;-58
2023/09/03 11:25:57;;;;;;;2.55;1.90;;;;;;;;;;5072519;28;20413;-58
2023/09/03 11:28:24;;;;;;;3.05;1.55;;;;;;;;;;5072746;28;20063;-58
2023/09/03 11:30:59;;;;;;;2.03;1.48;;;;;;;;;;5071017;28;20049;-58
2023/09/03 11:33:26;;;;;;;4.03;1.48;;;;;;;;;;5069731;28;20048;-59
2023/09/03 11:35:54;;;;;;;2.20;1.45;;;;;;;;;;5064020;28;20053;-58
2023/09/03 11:38:22;;;;;;;2.42;1.60;;;;;;;;;;5067160;28;20048;-58
2023/09/03 11:40:53;;;;;;;1.70;1.10;;;;;;;;;;5071440;28;20059;-58
2023/09/03 11:43:21;;;;;;;3.20;1.20;;;;;;;;;;5070434;28;20055;-58
2023/09/03 11:45:48;;;;;;;1.73;0.95;;;;;;;;;;5071131;28;20052;-58
2023/09/03 11:48:15;;;;;;;1.40;0.80;;;;;;;;;;5065692;28;20049;-58
2023/09/03 11:50:41;;;;;;;1.73;1.00;;;;;;;;;;5068439;28;20052;-58
2023/09/03 11:53:10;;;;;;;1.58;1.00;;;;;;;;;;5071652;28;20060;-58
2023/09/03 11:55:38;;;;;;;1.42;0.82;;;;;;;;;;5067521;28;20401;-58
2023/09/03 11:58:06;;;;;;;1.25;0.77;;;;;;;;;;5068454;28;20051;-58
2023/09/03 12:00:34;;;;;;;1.20;0.73;;;;;;;;;;5069862;28;20060;-57
2023/09/03 12:03:01;;;;;;;1.02;0.65;;;;;;;;;;5066232;28;20052;-57
2023/09/03 12:05:28;;;;;;;0.98;0.70;;;;;;;;;;5071691;28;20064;-57
2023/09/03 12:08:00;;;;;;;1.52;0.90;;;;;;;;;;5065829;28;20503;-57
2023/09/03 12:10:27;;;;;;;1.52;0.70;;;;;;;;;;5068105;28;20079;-59
2023/09/03 12:12:53;;;;;;;3.92;2.42;;;;;;;;;;5071389;28;20391;-37
2023/09/03 12:15:21;;;;;;;2.00;1.33;;;;;;;;;;5067791;28;20060;-37
2023/09/03 12:17:49;;;;;;;2.75;1.25;;;;;;;;;;5068249;28;20041;-58
2023/09/03 12:20:31;;;;;;;1.90;0.80;;;;;;;;;;5074131;28;20052;-59
2023/09/03 12:23:06;;;;;;;1.90;1.27;;;;;;;;;;5073530;28;20158;-59
2023/09/03 12:25:33;;;;;;;2.33;1.50;;;;;;;;;;5073187;28;20162;-59
2023/09/03 12:28:00;;;;;;;0.98;0.68;;;;;;;;;;5073327;28;20397;-59
2023/09/03 12:30:26;;;;;;;1.50;1.08;;;;;;;;;;5073265;28;20059;-59
2023/09/03 12:32:55;;;;;;;1.65;0.98;;;;;;;;;;5073345;28;20059;-59
2023/09/03 12:35:22;;;;;;;1.98;1.23;;;;;;;;;;5071823;28;20527;-59
2023/09/03 12:37:49;;;;;;;1.50;1.10;;;;;;;;;;5073109;28;20397;-59
2023/09/03 12:40:16;;;;;;;1.80;1.20;;;;;;;;;;5073342;28;20053;-59
2023/09/03 12:42:44;;;;;;;1.70;0.90;;;;;;;;;;5073333;28;20056;-59
2023/09/03 12:45:11;;;;;;;1.75;1.10;;;;;;;;;;5072969;28;20059;-59
2023/09/03 12:47:38;;;;;;;1.55;0.80;;;;;;;;;;5073163;28;20469;-59
2023/09/03 12:50:07;;;;;;;1.48;1.13;;;;;;;;;;5071438;28;20063;-59
2023/09/03 12:52:34;;;;;;;1.77;1.10;;;;;;;;;;5072826;28;20060;-58
2023/09/03 12:55:01;;;;;;;1.63;1.10;;;;;;;;;;5072685;28;20053;-57
2023/09/03 12:57:29;;;;;;;2.88;1.38;;;;;;;;;;5072359;28;20421;-59
2023/09/03 12:59:56;;;;;;;1.90;1.30;;;;;;;;;;5072946;28;20055;-59
2023/09/03 13:02:22;;;;;;;2.00;1.10;;;;;;;;;;5071525;28;20052;-59
2023/09/03 13:04:49;;;;;;;1.92;1.13;;;;;;;;;;5070591;28;20057;-59
2023/09/03 13:07:17;;;;;;;2.15;1.58;;;;;;;;;;5070905;28;20057;-59
2023/09/03 13:09:44;;;;;;;;;;;;;;;;;;5073520;28;20512;-59
2023/09/03 13:12:11;;;;;;;3.38;1.70;;;;;;;;;;5065138;28;19928;-59
2023/09/03 13:14:37;;;;;;;2.63;1.95;;;;;;;;;;5063808;28;20056;-59
2023/09/03 13:17:04;;;;;;;1.92;1.50;;;;;;;;;;5070097;28;20421;-59
2023/09/03 13:19:31;;;;;;;1.63;1.40;;;;;;;;;;5057214;28;20045;-59
2023/09/03 13:21:58;;;;;;;2.08;1.48;;;;;;;;;;5052810;28;20375;-59
2023/09/03 13:24:26;;;;;;;1.67;1.20;;;;;;;;;;5052505;28;20401;-58
2023/09/03 13:26:52;;;;;;;;;;;;;;;;;;5071754;28;20056;-59
2023/09/03 13:29:19;;;;;;;2.05;1.40;;;;;;;;;;5069372;28;19927;-59
2023/09/03 13:31:47;;;;;;;2.45;1.70;;;;;;;;;;5072522;28;20053;-58
2023/09/03 13:34:14;;;;;;;1.60;1.10;;;;;;;;;;5071487;28;20052;-59
2023/09/03 13:36:40;;;;;;;1.67;1.40;;;;;;;;;;5072663;28;20413;-59
2023/09/03 13:39:08;;;;;;;2.05;1.17;;;;;;;;;;5072554;28;20352;-59
2023/09/03 13:41:36;;;;;;;2.50;1.48;;;;;;;;;;5072314;28;20052;-59
2023/09/03 13:44:03;;;;;;;2.92;1.20;;;;;;;;;;5071538;28;20054;-59
2023/09/03 13:46:31;;;;;;;2.60;1.15;;;;;;;;;;5072362;28;20053;-59
2023/09/03 13:48:58;;;;;;;1.50;1.20;;;;;;;;;;5068823;28;20048;-59
2023/09/03 13:51:25;;;;;;;1.70;1.10;;;;;;;;;;5052790;28;20060;-59
2023/09/03 13:53:53;;;;;;;2.17;0.95;;;;;;;;;;5052390;28;20049;-59
2023/09/03 13:56:20;;;;;;;1.45;0.90;;;;;;;;;;5051771;28;20064;-59
2023/09/03 13:58:48;;;;;;;2.38;1.08;;;;;;;;;;5069338;28;20060;-58
2023/09/03 14:01:15;;;;;;;1.27;0.70;;;;;;;;;;5072128;28;20544;-58
2023/09/03 14:03:41;;;;;;;2.15;1.20;;;;;;;;;;5064684;28;20410;-58
2023/09/03 14:06:09;;;;;;;1.20;0.85;;;;;;;;;;5070937;28;20048;-58
2023/09/03 14:08:36;;;;;;;1.40;0.73;;;;;;;;;;5074488;28;20060;-58
2023/09/03 14:11:02;;;;;;;1.33;0.93;;;;;;;;;;5075253;28;20052;-59
2023/09/03 14:13:29;;;;;;;1.35;0.80;;;;;;;;;;5074219;28;20048;-58
2023/09/03 14:15:57;;;;;;;1.42;0.68;;;;;;;;;;5075071;28;20052;-58
2023/09/03 14:18:27;;;;;;;1.48;0.80;;;;;;;;;;5073231;28;20056;-58
2023/09/03 14:20:54;;;;;;;1.25;0.75;;;;;;;;;;5072873;28;20048;-59
2023/09/03 14:23:21;;;;;;;1.67;0.90;;;;;;;;;;5065301;28;20048;-58
2023/09/03 14:25:48;;;;;;;1.58;0.80;;;;;;;;;;5075332;28;20060;-58
2023/09/03 14:28:15;;;;;;;1.40;0.93;;;;;;;;;;5071066;28;20059;-58
2023/09/03 14:30:42;;;;;;;2.17;0.80;;;;;;;;;;5072349;28;20052;-58
2023/09/03 14:33:10;;;;;;;1.48;0.75;;;;;;;;;;5075026;28;20049;-58
2023/09/03 14:35:36;;;;;;;1.75;1.10;;;;;;;;;;5073880;28;20057;-58
2023/09/03 14:38:03;;;;;;;1.52;0.60;;;;;;;;;;5074970;28;20048;-58
2023/09/03 14:40:30;;;;;;;1.27;0.70;;;;;;;;;;5074183;28;20052;-58
2023/09/03 14:42:57;;;;;;;0.90;0.60;;;;;;;;;;5075500;28;20063;-57